Seattle, Washington
Traffic Map
Current Weather Conditions
Seattle, Washington
Clear
Clear
22°
Feels Like: 22°
Wind Chill: 22° Ceiling: Unl
Heat Index: 22° Visibility: 10mi
Dew Point: Wind: 6mph
Humidity: 40% Direction: ° ()
Pressure: 30.04in Gusts: 0mph
Raw Report DataKBFI 061953Z VRB05KT 10SM CLR 22/08 A3004 RMK AO2 SLP172 T02220078 $
Traffic Incident Summary
Active as of:
Severity:
Category:
InformationThere was an issue retrieving the traffic information for this location. Please try a different location or try again shortly.
Advertisements
Track Severe Weather on mobile